sensor_id;sensor_type;location;lat;lon;timestamp;P1;durP1;ratioP1;P2;durP2;ratioP2
33190;SDS011;19554;42.652;23.364;2023-11-21T00:00:36;7.05;;;4.07;;
33190;SDS011;19554;42.652;23.364;2023-11-21T00:03:01;8.82;;;5.05;;
33190;SDS011;19554;42.652;23.364;2023-11-21T00:05:27;8.40;;;5.25;;
33190;SDS011;19554;42.652;23.364;2023-11-21T00:07:52;13.65;;;7.97;;
33190;SDS011;19554;42.652;23.364;2023-11-21T00:10:18;18.77;;;10.68;;
33190;SDS011;19554;42.652;23.364;2023-11-21T00:12:43;20.35;;;10.88;;
33190;SDS011;19554;42.652;23.364;2023-11-21T00:15:09;22.58;;;11.23;;
33190;SDS011;19554;42.652;23.364;2023-11-21T00:17:36;25.63;;;11.45;;
33190;SDS011;19554;42.652;23.364;2023-11-21T00:20:02;21.60;;;11.45;;
33190;SDS011;19554;42.652;23.364;2023-11-21T00:22:31;28.33;;;13.25;;
33190;SDS011;19554;42.652;23.364;2023-11-21T00:25:00;26.13;;;12.27;;
33190;SDS011;19554;42.652;23.364;2023-11-21T00:27:28;28.35;;;11.80;;
33190;SDS011;19554;42.652;23.364;2023-11-21T00:29:53;21.30;;;11.45;;
33190;SDS011;19554;42.652;23.364;2023-11-21T00:32:19;19.15;;;10.55;;
33190;SDS011;19554;42.652;23.364;2023-11-21T00:34:44;21.60;;;10.25;;
33190;SDS011;19554;42.652;23.364;2023-11-21T00:37:10;20.65;;;10.00;;
33190;SDS011;19554;42.652;23.364;2023-11-21T00:39:35;17.70;;;9.65;;
33190;SDS011;19554;42.652;23.364;2023-11-21T00:42:01;16.98;;;9.20;;
33190;SDS011;19554;42.652;23.364;2023-11-21T00:44:26;16.13;;;9.05;;
33190;SDS011;19554;42.652;23.364;2023-11-21T00:46:51;22.10;;;10.27;;
33190;SDS011;19554;42.652;23.364;2023-11-21T00:49:17;18.70;;;9.00;;
33190;SDS011;19554;42.652;23.364;2023-11-21T00:51:42;17.85;;;10.23;;
33190;SDS011;19554;42.652;23.364;2023-11-21T00:54:08;17.45;;;9.88;;
33190;SDS011;19554;42.652;23.364;2023-11-21T00:56:33;19.98;;;10.50;;
33190;SDS011;19554;42.652;23.364;2023-11-21T00:58:59;22.58;;;10.25;;
33190;SDS011;19554;42.652;23.364;2023-11-21T01:01:24;15.52;;;8.40;;
33190;SDS011;19554;42.652;23.364;2023-11-21T01:03:50;14.98;;;8.70;;
33190;SDS011;19554;42.652;23.364;2023-11-21T01:06:15;19.35;;;9.98;;
33190;SDS011;19554;42.652;23.364;2023-11-21T01:08:41;22.50;;;11.25;;
33190;SDS011;19554;42.652;23.364;2023-11-21T01:11:07;24.75;;;13.65;;
33190;SDS011;19554;42.652;23.364;2023-11-21T01:13:40;25.30;;;9.45;;
33190;SDS011;19554;42.652;23.364;2023-11-21T01:16:07;19.27;;;10.77;;
33190;SDS011;19554;42.652;23.364;2023-11-21T01:18:33;20.00;;;10.25;;
33190;SDS011;19554;42.652;23.364;2023-11-21T01:21:00;23.75;;;11.32;;
33190;SDS011;19554;42.652;23.364;2023-11-21T01:23:25;16.98;;;9.20;;
33190;SDS011;19554;42.652;23.364;2023-11-21T01:25:52;20.83;;;9.65;;
33190;SDS011;19554;42.652;23.364;2023-11-21T01:28:17;21.48;;;10.43;;
33190;SDS011;19554;42.652;23.364;2023-11-21T01:30:43;23.23;;;11.20;;
33190;SDS011;19554;42.652;23.364;2023-11-21T01:33:09;20.75;;;10.80;;
33190;SDS011;19554;42.652;23.364;2023-11-21T01:35:35;21.67;;;10.52;;
33190;SDS011;19554;42.652;23.364;2023-11-21T01:38:01;25.05;;;10.85;;
33190;SDS011;19554;42.652;23.364;2023-11-21T01:40:26;25.30;;;11.45;;
33190;SDS011;19554;42.652;23.364;2023-11-21T01:42:53;20.13;;;11.15;;
33190;SDS011;19554;42.652;23.364;2023-11-21T01:45:19;23.95;;;12.27;;
33190;SDS011;19554;42.652;23.364;2023-11-21T01:47:45;22.38;;;11.30;;
33190;SDS011;19554;42.652;23.364;2023-11-21T01:50:13;27.05;;;12.00;;
33190;SDS011;19554;42.652;23.364;2023-11-21T01:52:41;28.75;;;13.98;;
33190;SDS011;19554;42.652;23.364;2023-11-21T01:55:12;28.08;;;14.32;;
33190;SDS011;19554;42.652;23.364;2023-11-21T01:57:43;25.27;;;13.50;;
33190;SDS011;19554;42.652;23.364;2023-11-21T02:00:08;24.63;;;12.48;;
33190;SDS011;19554;42.652;23.364;2023-11-21T02:02:44;25.35;;;12.82;;
33190;SDS011;19554;42.652;23.364;2023-11-21T02:05:11;24.50;;;13.73;;
33190;SDS011;19554;42.652;23.364;2023-11-21T02:07:40;24.23;;;13.93;;
33190;SDS011;19554;42.652;23.364;2023-11-21T02:10:07;26.67;;;15.18;;
33190;SDS011;19554;42.652;23.364;2023-11-21T02:12:34;35.85;;;20.63;;
33190;SDS011;19554;42.652;23.364;2023-11-21T02:15:05;49.95;;;23.75;;
33190;SDS011;19554;42.652;23.364;2023-11-21T02:17:37;37.75;;;19.65;;
33190;SDS011;19554;42.652;23.364;2023-11-21T02:20:03;32.38;;;17.85;;
33190;SDS011;19554;42.652;23.364;2023-11-21T02:22:31;29.73;;;17.50;;
33190;SDS011;19554;42.652;23.364;2023-11-21T02:25:02;30.65;;;15.82;;
33190;SDS011;19554;42.652;23.364;2023-11-21T02:27:28;29.48;;;17.30;;
33190;SDS011;19554;42.652;23.364;2023-11-21T02:29:53;30.20;;;17.02;;
33190;SDS011;19554;42.652;23.364;2023-11-21T02:32:19;31.13;;;18.33;;
33190;SDS011;19554;42.652;23.364;2023-11-21T02:34:47;31.67;;;16.05;;
33190;SDS011;19554;42.652;23.364;2023-11-21T02:37:13;27.35;;;15.35;;
33190;SDS011;19554;42.652;23.364;2023-11-21T02:39:38;28.73;;;14.43;;
33190;SDS011;19554;42.652;23.364;2023-11-21T02:42:04;26.95;;;13.57;;
33190;SDS011;19554;42.652;23.364;2023-11-21T02:44:29;26.05;;;14.57;;
33190;SDS011;19554;42.652;23.364;2023-11-21T02:46:55;23.13;;;13.40;;
33190;SDS011;19554;42.652;23.364;2023-11-21T02:49:22;27.10;;;14.52;;
33190;SDS011;19554;42.652;23.364;2023-11-21T02:51:48;24.30;;;13.85;;
33190;SDS011;19554;42.652;23.364;2023-11-21T02:54:13;19.95;;;13.68;;
33190;SDS011;19554;42.652;23.364;2023-11-21T02:56:39;26.20;;;14.38;;
33190;SDS011;19554;42.652;23.364;2023-11-21T02:59:05;22.95;;;12.98;;
33190;SDS011;19554;42.652;23.364;2023-11-21T03:01:30;24.20;;;13.13;;
33190;SDS011;19554;42.652;23.364;2023-11-21T03:03:56;24.25;;;12.93;;
33190;SDS011;19554;42.652;23.364;2023-11-21T03:06:22;26.33;;;14.60;;
33190;SDS011;19554;42.652;23.364;2023-11-21T03:08:48;22.77;;;12.93;;
33190;SDS011;19554;42.652;23.364;2023-11-21T03:11:14;22.88;;;12.35;;
33190;SDS011;19554;42.652;23.364;2023-11-21T03:13:42;21.73;;;12.27;;
33190;SDS011;19554;42.652;23.364;2023-11-21T03:16:08;27.80;;;12.57;;
33190;SDS011;19554;42.652;23.364;2023-11-21T03:18:35;25.75;;;12.75;;
33190;SDS011;19554;42.652;23.364;2023-11-21T03:21:01;24.75;;;11.82;;
33190;SDS011;19554;42.652;23.364;2023-11-21T03:23:26;27.10;;;11.80;;
33190;SDS011;19554;42.652;23.364;2023-11-21T03:25:52;24.83;;;11.95;;
33190;SDS011;19554;42.652;23.364;2023-11-21T03:28:17;23.88;;;13.07;;
33190;SDS011;19554;42.652;23.364;2023-11-21T03:30:43;25.50;;;12.55;;
33190;SDS011;19554;42.652;23.364;2023-11-21T03:33:08;23.58;;;12.30;;
33190;SDS011;19554;42.652;23.364;2023-11-21T03:35:33;30.83;;;13.68;;
33190;SDS011;19554;42.652;23.364;2023-11-21T03:37:59;23.23;;;12.25;;
33190;SDS011;19554;42.652;23.364;2023-11-21T03:40:24;30.38;;;13.27;;
33190;SDS011;19554;42.652;23.364;2023-11-21T03:42:50;28.48;;;13.13;;
33190;SDS011;19554;42.652;23.364;2023-11-21T03:45:15;26.42;;;12.65;;
33190;SDS011;19554;42.652;23.364;2023-11-21T03:47:41;28.10;;;13.80;;
33190;SDS011;19554;42.652;23.364;2023-11-21T03:50:07;26.10;;;12.70;;
33190;SDS011;19554;42.652;23.364;2023-11-21T03:52:34;25.40;;;14.80;;
33190;SDS011;19554;42.652;23.364;2023-11-21T03:55:00;28.40;;;15.65;;
33190;SDS011;19554;42.652;23.364;2023-11-21T03:57:29;24.88;;;12.95;;
33190;SDS011;19554;42.652;23.364;2023-11-21T03:59:54;30.08;;;15.18;;
33190;SDS011;19554;42.652;23.364;2023-11-21T04:02:19;25.42;;;13.63;;
33190;SDS011;19554;42.652;23.364;2023-11-21T04:04:45;26.77;;;13.73;;
33190;SDS011;19554;42.652;23.364;2023-11-21T04:07:10;25.35;;;14.05;;
33190;SDS011;19554;42.652;23.364;2023-11-21T04:09:38;24.65;;;11.90;;
33190;SDS011;19554;42.652;23.364;2023-11-21T04:12:04;22.98;;;12.15;;
33190;SDS011;19554;42.652;23.364;2023-11-21T04:14:30;21.27;;;12.25;;
33190;SDS011;19554;42.652;23.364;2023-11-21T04:16:56;20.13;;;12.38;;
33190;SDS011;19554;42.652;23.364;2023-11-21T04:19:21;21.30;;;12.63;;
33190;SDS011;19554;42.652;23.364;2023-11-21T04:21:46;21.80;;;12.77;;
33190;SDS011;19554;42.652;23.364;2023-11-21T04:24:12;23.70;;;13.98;;
33190;SDS011;19554;42.652;23.364;2023-11-21T04:26:37;28.48;;;13.43;;
33190;SDS011;19554;42.652;23.364;2023-11-21T04:29:03;27.95;;;14.02;;
33190;SDS011;19554;42.652;23.364;2023-11-21T04:31:32;22.20;;;12.63;;
33190;SDS011;19554;42.652;23.364;2023-11-21T04:33:58;26.77;;;11.88;;
33190;SDS011;19554;42.652;23.364;2023-11-21T04:36:24;19.75;;;12.05;;
33190;SDS011;19554;42.652;23.364;2023-11-21T04:38:49;25.38;;;12.40;;
33190;SDS011;19554;42.652;23.364;2023-11-21T04:41:15;19.90;;;10.85;;
33190;SDS011;19554;42.652;23.364;2023-11-21T04:43:40;19.95;;;10.55;;
33190;SDS011;19554;42.652;23.364;2023-11-21T04:46:07;19.08;;;11.07;;
33190;SDS011;19554;42.652;23.364;2023-11-21T04:48:33;20.63;;;11.30;;
33190;SDS011;19554;42.652;23.364;2023-11-21T04:50:58;15.07;;;9.55;;
33190;SDS011;19554;42.652;23.364;2023-11-21T04:53:23;21.63;;;10.45;;
33190;SDS011;19554;42.652;23.364;2023-11-21T04:55:49;18.13;;;10.40;;
33190;SDS011;19554;42.652;23.364;2023-11-21T04:58:14;18.85;;;10.68;;
33190;SDS011;19554;42.652;23.364;2023-11-21T05:00:40;21.60;;;11.73;;
33190;SDS011;19554;42.652;23.364;2023-11-21T05:03:06;19.77;;;10.70;;
33190;SDS011;19554;42.652;23.364;2023-11-21T05:05:32;21.05;;;11.25;;
33190;SDS011;19554;42.652;23.364;2023-11-21T05:07:59;18.17;;;10.80;;
33190;SDS011;19554;42.652;23.364;2023-11-21T05:10:24;17.15;;;10.25;;
33190;SDS011;19554;42.652;23.364;2023-11-21T05:12:50;34.95;;;15.25;;
33190;SDS011;19554;42.652;23.364;2023-11-21T05:15:15;27.38;;;15.93;;
33190;SDS011;19554;42.652;23.364;2023-11-21T05:17:44;37.50;;;17.85;;
33190;SDS011;19554;42.652;23.364;2023-11-21T05:20:11;16.63;;;8.98;;
33190;SDS011;19554;42.652;23.364;2023-11-21T05:22:39;30.40;;;14.70;;
33190;SDS011;19554;42.652;23.364;2023-11-21T05:25:05;30.10;;;15.48;;
33190;SDS011;19554;42.652;23.364;2023-11-21T05:27:33;31.50;;;15.30;;
33190;SDS011;19554;42.652;23.364;2023-11-21T05:30:00;34.88;;;15.10;;
33190;SDS011;19554;42.652;23.364;2023-11-21T05:32:27;36.40;;;16.10;;
33190;SDS011;19554;42.652;23.364;2023-11-21T05:34:53;43.63;;;17.08;;
33190;SDS011;19554;42.652;23.364;2023-11-21T05:37:18;31.33;;;13.02;;
33190;SDS011;19554;42.652;23.364;2023-11-21T05:39:43;33.88;;;14.85;;
33190;SDS011;19554;42.652;23.364;2023-11-21T05:42:09;39.33;;;18.60;;
33190;SDS011;19554;42.652;23.364;2023-11-21T05:44:36;37.47;;;18.88;;
33190;SDS011;19554;42.652;23.364;2023-11-21T05:47:02;48.60;;;22.30;;
33190;SDS011;19554;42.652;23.364;2023-11-21T05:49:28;49.38;;;22.70;;
33190;SDS011;19554;42.652;23.364;2023-11-21T05:51:54;40.83;;;20.50;;
33190;SDS011;19554;42.652;23.364;2023-11-21T05:54:20;37.90;;;20.40;;
33190;SDS011;19554;42.652;23.364;2023-11-21T05:56:45;27.33;;;15.60;;
33190;SDS011;19554;42.652;23.364;2023-11-21T05:59:12;27.90;;;15.13;;
33190;SDS011;19554;42.652;23.364;2023-11-21T06:01:37;37.47;;;18.48;;
33190;SDS011;19554;42.652;23.364;2023-11-21T06:04:04;42.65;;;17.92;;
33190;SDS011;19554;42.652;23.364;2023-11-21T06:06:30;34.60;;;17.95;;
33190;SDS011;19554;42.652;23.364;2023-11-21T06:08:56;33.15;;;18.10;;
33190;SDS011;19554;42.652;23.364;2023-11-21T06:11:22;41.80;;;16.73;;
33190;SDS011;19554;42.652;23.364;2023-11-21T06:13:47;33.85;;;17.92;;
33190;SDS011;19554;42.652;23.364;2023-11-21T06:16:13;39.72;;;16.33;;
33190;SDS011;19554;42.652;23.364;2023-11-21T06:18:41;41.42;;;19.80;;
33190;SDS011;19554;42.652;23.364;2023-11-21T06:21:09;34.72;;;19.20;;
33190;SDS011;19554;42.652;23.364;2023-11-21T06:23:35;34.92;;;18.38;;
33190;SDS011;19554;42.652;23.364;2023-11-21T06:26:00;36.28;;;17.27;;
33190;SDS011;19554;42.652;23.364;2023-11-21T06:28:26;43.22;;;22.25;;
33190;SDS011;19554;42.652;23.364;2023-11-21T06:30:51;38.75;;;19.27;;
33190;SDS011;19554;42.652;23.364;2023-11-21T06:33:18;32.38;;;17.90;;
33190;SDS011;19554;42.652;23.364;2023-11-21T06:35:44;36.85;;;18.13;;
33190;SDS011;19554;42.652;23.364;2023-11-21T06:38:09;32.00;;;18.27;;
33190;SDS011;19554;42.652;23.364;2023-11-21T06:40:35;36.80;;;17.05;;
33190;SDS011;19554;42.652;23.364;2023-11-21T06:43:01;37.15;;;18.08;;
33190;SDS011;19554;42.652;23.364;2023-11-21T06:45:27;47.03;;;21.08;;
33190;SDS011;19554;42.652;23.364;2023-11-21T06:47:52;45.17;;;22.23;;
33190;SDS011;19554;42.652;23.364;2023-11-21T06:50:18;38.33;;;19.52;;
33190;SDS011;19554;42.652;23.364;2023-11-21T06:52:43;39.50;;;19.60;;
33190;SDS011;19554;42.652;23.364;2023-11-21T06:55:09;33.90;;;19.88;;
33190;SDS011;19554;42.652;23.364;2023-11-21T06:57:34;38.47;;;20.08;;
33190;SDS011;19554;42.652;23.364;2023-11-21T07:00:00;50.42;;;21.40;;
33190;SDS011;19554;42.652;23.364;2023-11-21T07:02:26;50.22;;;20.13;;
33190;SDS011;19554;42.652;23.364;2023-11-21T07:04:51;43.85;;;17.38;;
33190;SDS011;19554;42.652;23.364;2023-11-21T07:07:17;33.35;;;15.30;;
33190;SDS011;19554;42.652;23.364;2023-11-21T07:09:43;30.13;;;14.13;;
33190;SDS011;19554;42.652;23.364;2023-11-21T07:12:09;27.15;;;12.68;;
33190;SDS011;19554;42.652;23.364;2023-11-21T07:14:36;32.85;;;13.32;;
33190;SDS011;19554;42.652;23.364;2023-11-21T07:17:04;31.05;;;14.60;;
33190;SDS011;19554;42.652;23.364;2023-11-21T07:19:29;35.38;;;14.98;;
33190;SDS011;19554;42.652;23.364;2023-11-21T07:21:54;34.88;;;13.75;;
33190;SDS011;19554;42.652;23.364;2023-11-21T07:24:20;26.38;;;13.88;;
33190;SDS011;19554;42.652;23.364;2023-11-21T07:26:47;34.15;;;13.40;;
33190;SDS011;19554;42.652;23.364;2023-11-21T07:29:13;24.00;;;12.52;;
33190;SDS011;19554;42.652;23.364;2023-11-21T07:31:38;27.10;;;14.82;;
33190;SDS011;19554;42.652;23.364;2023-11-21T07:34:04;30.90;;;15.32;;
33190;SDS011;19554;42.652;23.364;2023-11-21T07:36:30;27.20;;;12.82;;
33190;SDS011;19554;42.652;23.364;2023-11-21T07:38:56;26.85;;;12.45;;
33190;SDS011;19554;42.652;23.364;2023-11-21T07:41:22;27.20;;;13.25;;
33190;SDS011;19554;42.652;23.364;2023-11-21T07:43:47;28.30;;;14.60;;
33190;SDS011;19554;42.652;23.364;2023-11-21T07:46:13;25.67;;;14.93;;
33190;SDS011;19554;42.652;23.364;2023-11-21T07:48:39;31.80;;;14.35;;
33190;SDS011;19554;42.652;23.364;2023-11-21T07:51:06;24.00;;;14.45;;
33190;SDS011;19554;42.652;23.364;2023-11-21T07:53:34;29.02;;;14.55;;
33190;SDS011;19554;42.652;23.364;2023-11-21T07:56:04;33.53;;;15.23;;
33190;SDS011;19554;42.652;23.364;2023-11-21T07:58:31;32.15;;;14.88;;
33190;SDS011;19554;42.652;23.364;2023-11-21T08:00:58;31.23;;;16.17;;
33190;SDS011;19554;42.652;23.364;2023-11-21T08:03:24;31.08;;;15.77;;
33190;SDS011;19554;42.652;23.364;2023-11-21T08:05:51;32.72;;;14.82;;
33190;SDS011;19554;42.652;23.364;2023-11-21T08:08:17;48.58;;;16.80;;
33190;SDS011;19554;42.652;23.364;2023-11-21T08:10:43;27.73;;;14.43;;
33190;SDS011;19554;42.652;23.364;2023-11-21T08:13:13;34.07;;;14.40;;
33190;SDS011;19554;42.652;23.364;2023-11-21T08:15:40;30.85;;;14.15;;
33190;SDS011;19554;42.652;23.364;2023-11-21T08:18:10;39.15;;;14.82;;
33190;SDS011;19554;42.652;23.364;2023-11-21T08:20:35;29.17;;;14.32;;
33190;SDS011;19554;42.652;23.364;2023-11-21T08:23:03;32.03;;;14.05;;
33190;SDS011;19554;42.652;23.364;2023-11-21T08:25:30;33.55;;;14.50;;
33190;SDS011;19554;42.652;23.364;2023-11-21T08:27:57;34.80;;;16.25;;
33190;SDS011;19554;42.652;23.364;2023-11-21T08:30:22;37.28;;;17.23;;
33190;SDS011;19554;42.652;23.364;2023-11-21T08:32:49;34.88;;;15.38;;
33190;SDS011;19554;42.652;23.364;2023-11-21T08:35:16;32.95;;;14.57;;
33190;SDS011;19554;42.652;23.364;2023-11-21T08:37:41;29.67;;;16.65;;
33190;SDS011;19554;42.652;23.364;2023-11-21T08:40:08;30.17;;;14.85;;
33190;SDS011;19554;42.652;23.364;2023-11-21T08:42:41;30.73;;;15.10;;
33190;SDS011;19554;42.652;23.364;2023-11-21T08:45:07;30.17;;;15.90;;
33190;SDS011;19554;42.652;23.364;2023-11-21T08:47:34;30.13;;;15.38;;
33190;SDS011;19554;42.652;23.364;2023-11-21T08:50:01;31.05;;;14.50;;
33190;SDS011;19554;42.652;23.364;2023-11-21T08:52:27;29.02;;;14.38;;
33190;SDS011;19554;42.652;23.364;2023-11-21T08:54:53;28.70;;;14.43;;
33190;SDS011;19554;42.652;23.364;2023-11-21T08:57:23;22.17;;;13.75;;
33190;SDS011;19554;42.652;23.364;2023-11-21T08:59:49;28.70;;;14.13;;
33190;SDS011;19554;42.652;23.364;2023-11-21T09:02:20;25.00;;;14.15;;
33190;SDS011;19554;42.652;23.364;2023-11-21T09:04:45;38.72;;;15.57;;
33190;SDS011;19554;42.652;23.364;2023-11-21T09:07:11;25.52;;;14.80;;
33190;SDS011;19554;42.652;23.364;2023-11-21T09:09:36;34.17;;;15.50;;
33190;SDS011;19554;42.652;23.364;2023-11-21T09:12:02;24.35;;;14.82;;
33190;SDS011;19554;42.652;23.364;2023-11-21T09:14:27;28.13;;;14.63;;
33190;SDS011;19554;42.652;23.364;2023-11-21T09:16:53;31.08;;;14.93;;
33190;SDS011;19554;42.652;23.364;2023-11-21T09:19:18;42.25;;;18.88;;
33190;SDS011;19554;42.652;23.364;2023-11-21T09:21:44;38.28;;;20.55;;
33190;SDS011;19554;42.652;23.364;2023-11-21T09:24:09;39.47;;;18.92;;
33190;SDS011;19554;42.652;23.364;2023-11-21T09:26:35;41.17;;;20.63;;
33190;SDS011;19554;42.652;23.364;2023-11-21T09:29:00;39.08;;;19.95;;
33190;SDS011;19554;42.652;23.364;2023-11-21T09:31:27;32.45;;;19.38;;
33190;SDS011;19554;42.652;23.364;2023-11-21T09:33:52;41.33;;;19.75;;
33190;SDS011;19554;42.652;23.364;2023-11-21T09:36:18;41.38;;;18.40;;
33190;SDS011;19554;42.652;23.364;2023-11-21T09:38:43;39.15;;;20.17;;
33190;SDS011;19554;42.652;23.364;2023-11-21T09:41:11;36.35;;;18.90;;
33190;SDS011;19554;42.652;23.364;2023-11-21T09:43:46;42.95;;;20.13;;
33190;SDS011;19554;42.652;23.364;2023-11-21T09:46:17;46.45;;;21.00;;
33190;SDS011;19554;42.652;23.364;2023-11-21T09:48:48;50.67;;;22.83;;
33190;SDS011;19554;42.652;23.364;2023-11-21T09:51:18;49.25;;;22.98;;
33190;SDS011;19554;42.652;23.364;2023-11-21T09:53:46;40.55;;;20.27;;
33190;SDS011;19554;42.652;23.364;2023-11-21T09:56:15;42.17;;;20.83;;
33190;SDS011;19554;42.652;23.364;2023-11-21T09:58:44;46.85;;;22.63;;
33190;SDS011;19554;42.652;23.364;2023-11-21T10:01:10;52.20;;;22.20;;
33190;SDS011;19554;42.652;23.364;2023-11-21T10:03:37;42.83;;;21.55;;
33190;SDS011;19554;42.652;23.364;2023-11-21T10:06:03;48.75;;;22.75;;
33190;SDS011;19554;42.652;23.364;2023-11-21T10:08:30;37.83;;;21.67;;
33190;SDS011;19554;42.652;23.364;2023-11-21T10:10:58;38.65;;;21.38;;
33190;SDS011;19554;42.652;23.364;2023-11-21T10:13:24;37.88;;;20.85;;
33190;SDS011;19554;42.652;23.364;2023-11-21T10:18:20;38.20;;;19.90;;
33190;SDS011;19554;42.652;23.364;2023-11-21T10:20:49;37.53;;;19.88;;
33190;SDS011;19554;42.652;23.364;2023-11-21T10:23:19;38.55;;;20.35;;
33190;SDS011;19554;42.652;23.364;2023-11-21T10:25:46;31.85;;;16.17;;
33190;SDS011;19554;42.652;23.364;2023-11-21T10:28:11;39.33;;;17.98;;
33190;SDS011;19554;42.652;23.364;2023-11-21T10:30:37;32.47;;;17.77;;
33190;SDS011;19554;42.652;23.364;2023-11-21T10:33:04;34.72;;;18.65;;
33190;SDS011;19554;42.652;23.364;2023-11-21T10:38:05;35.53;;;18.80;;
33190;SDS011;19554;42.652;23.364;2023-11-21T10:40:30;36.83;;;18.55;;
33190;SDS011;19554;42.652;23.364;2023-11-21T10:43:04;35.50;;;17.38;;
33190;SDS011;19554;42.652;23.364;2023-11-21T10:45:31;44.78;;;18.08;;
33190;SDS011;19554;42.652;23.364;2023-11-21T10:47:56;31.30;;;16.88;;
33190;SDS011;19554;42.652;23.364;2023-11-21T10:50:23;36.17;;;16.50;;
33190;SDS011;19554;42.652;23.364;2023-11-21T10:52:48;38.25;;;17.02;;
33190;SDS011;19554;42.652;23.364;2023-11-21T10:55:20;28.55;;;15.63;;
33190;SDS011;19554;42.652;23.364;2023-11-21T10:57:51;40.83;;;16.27;;
33190;SDS011;19554;42.652;23.364;2023-11-21T11:00:18;35.20;;;17.27;;
33190;SDS011;19554;42.652;23.364;2023-11-21T11:02:53;34.67;;;16.77;;
33190;SDS011;19554;42.652;23.364;2023-11-21T11:05:20;36.33;;;17.13;;
33190;SDS011;19554;42.652;23.364;2023-11-21T11:07:49;35.90;;;16.70;;
33190;SDS011;19554;42.652;23.364;2023-11-21T11:10:20;26.88;;;15.60;;
33190;SDS011;19554;42.652;23.364;2023-11-21T11:12:47;34.97;;;16.40;;
33190;SDS011;19554;42.652;23.364;2023-11-21T11:15:15;34.65;;;15.73;;
33190;SDS011;19554;42.652;23.364;2023-11-21T11:17:41;30.10;;;15.68;;
33190;SDS011;19554;42.652;23.364;2023-11-21T11:20:10;25.00;;;14.50;;
33190;SDS011;19554;42.652;23.364;2023-11-21T11:22:41;27.20;;;13.82;;
33190;SDS011;19554;42.652;23.364;2023-11-21T11:28:15;29.48;;;15.52;;
33190;SDS011;19554;42.652;23.364;2023-11-21T11:33:38;28.13;;;16.48;;
33190;SDS011;19554;42.652;23.364;2023-11-21T11:38:34;34.38;;;16.25;;
33190;SDS011;19554;42.652;23.364;2023-11-21T11:41:04;34.25;;;16.15;;
33190;SDS011;19554;42.652;23.364;2023-11-21T11:43:31;26.88;;;15.25;;
33190;SDS011;19554;42.652;23.364;2023-11-21T11:46:09;31.60;;;15.57;;
33190;SDS011;19554;42.652;23.364;2023-11-21T11:48:38;34.83;;;17.48;;
33190;SDS011;19554;42.652;23.364;2023-11-21T11:51:14;24.20;;;15.20;;
33190;SDS011;19554;42.652;23.364;2023-11-21T11:53:42;27.63;;;14.90;;
33190;SDS011;19554;42.652;23.364;2023-11-21T11:58:58;29.48;;;14.32;;
33190;SDS011;19554;42.652;23.364;2023-11-21T12:01:25;32.28;;;15.23;;
33190;SDS011;19554;42.652;23.364;2023-11-21T12:07:02;28.20;;;14.93;;
33190;SDS011;19554;42.652;23.364;2023-11-21T12:09:28;24.45;;;15.27;;
33190;SDS011;19554;42.652;23.364;2023-11-21T12:11:55;28.23;;;16.00;;
33190;SDS011;19554;42.652;23.364;2023-11-21T12:14:23;28.15;;;16.83;;
33190;SDS011;19554;42.652;23.364;2023-11-21T12:16:49;31.88;;;16.38;;
33190;SDS011;19554;42.652;23.364;2023-11-21T12:19:14;45.78;;;19.80;;
33190;SDS011;19554;42.652;23.364;2023-11-21T12:21:40;30.27;;;18.10;;
33190;SDS011;19554;42.652;23.364;2023-11-21T12:24:06;36.53;;;17.95;;
33190;SDS011;19554;42.652;23.364;2023-11-21T12:26:34;36.10;;;18.45;;
33190;SDS011;19554;42.652;23.364;2023-11-21T12:29:01;40.47;;;21.33;;
33190;SDS011;19554;42.652;23.364;2023-11-21T12:31:29;39.15;;;21.58;;
33190;SDS011;19554;42.652;23.364;2023-11-21T12:33:55;36.05;;;21.50;;
33190;SDS011;19554;42.652;23.364;2023-11-21T12:36:22;46.95;;;27.38;;
33190;SDS011;19554;42.652;23.364;2023-11-21T12:38:48;53.85;;;31.48;;
33190;SDS011;19554;42.652;23.364;2023-11-21T12:41:15;48.35;;;26.85;;
33190;SDS011;19554;42.652;23.364;2023-11-21T12:43:42;37.65;;;23.60;;
33190;SDS011;19554;42.652;23.364;2023-11-21T12:46:09;45.42;;;24.60;;
33190;SDS011;19554;42.652;23.364;2023-11-21T12:48:38;43.25;;;24.70;;
33190;SDS011;19554;42.652;23.364;2023-11-21T12:51:09;52.20;;;26.23;;
33190;SDS011;19554;42.652;23.364;2023-11-21T12:53:36;44.53;;;26.50;;
33190;SDS011;19554;42.652;23.364;2023-11-21T12:56:06;48.75;;;26.75;;
33190;SDS011;19554;42.652;23.364;2023-11-21T12:58:38;45.97;;;26.45;;
33190;SDS011;19554;42.652;23.364;2023-11-21T13:01:07;57.53;;;30.07;;
33190;SDS011;19554;42.652;23.364;2023-11-21T13:03:40;57.13;;;30.55;;
33190;SDS011;19554;42.652;23.364;2023-11-21T13:06:06;57.83;;;30.92;;
33190;SDS011;19554;42.652;23.364;2023-11-21T13:08:32;51.65;;;29.25;;
33190;SDS011;19554;42.652;23.364;2023-11-21T13:10:59;53.33;;;30.60;;
33190;SDS011;19554;42.652;23.364;2023-11-21T13:13:25;55.88;;;29.58;;
33190;SDS011;19554;42.652;23.364;2023-11-21T13:15:54;44.75;;;27.58;;
33190;SDS011;19554;42.652;23.364;2023-11-21T13:18:25;50.10;;;28.33;;
33190;SDS011;19554;42.652;23.364;2023-11-21T13:20:52;57.55;;;28.55;;
33190;SDS011;19554;42.652;23.364;2023-11-21T13:23:18;50.33;;;29.85;;
33190;SDS011;19554;42.652;23.364;2023-11-21T13:25:44;53.75;;;28.73;;
33190;SDS011;19554;42.652;23.364;2023-11-21T13:28:13;60.38;;;31.80;;
33190;SDS011;19554;42.652;23.364;2023-11-21T13:30:40;53.55;;;30.38;;
33190;SDS011;19554;42.652;23.364;2023-11-21T13:33:07;57.97;;;30.88;;
33190;SDS011;19554;42.652;23.364;2023-11-21T13:35:34;62.97;;;30.00;;
33190;SDS011;19554;42.652;23.364;2023-11-21T13:38:11;56.22;;;30.13;;
33190;SDS011;19554;42.652;23.364;2023-11-21T13:40:39;58.40;;;28.38;;
33190;SDS011;19554;42.652;23.364;2023-11-21T13:43:09;53.90;;;29.50;;
33190;SDS011;19554;42.652;23.364;2023-11-21T13:45:39;53.72;;;28.30;;
33190;SDS011;19554;42.652;23.364;2023-11-21T13:48:05;53.17;;;28.20;;
33190;SDS011;19554;42.652;23.364;2023-11-21T13:50:35;49.85;;;27.58;;
33190;SDS011;19554;42.652;23.364;2023-11-21T13:53:02;66.03;;;29.55;;
33190;SDS011;19554;42.652;23.364;2023-11-21T13:55:34;54.65;;;30.13;;
33190;SDS011;19554;42.652;23.364;2023-11-21T13:58:00;52.03;;;27.35;;
33190;SDS011;19554;42.652;23.364;2023-11-21T14:00:34;52.47;;;27.92;;
33190;SDS011;19554;42.652;23.364;2023-11-21T14:03:14;58.08;;;28.95;;
33190;SDS011;19554;42.652;23.364;2023-11-21T14:05:45;48.90;;;28.00;;
33190;SDS011;19554;42.652;23.364;2023-11-21T14:08:14;55.58;;;28.75;;
33190;SDS011;19554;42.652;23.364;2023-11-21T14:10:45;66.70;;;28.73;;
33190;SDS011;19554;42.652;23.364;2023-11-21T14:13:15;53.80;;;27.60;;
33190;SDS011;19554;42.652;23.364;2023-11-21T14:15:44;74.00;;;28.85;;
33190;SDS011;19554;42.652;23.364;2023-11-21T14:18:12;60.28;;;29.73;;
33190;SDS011;19554;42.652;23.364;2023-11-21T14:20:42;59.60;;;29.35;;
33190;SDS011;19554;42.652;23.364;2023-11-21T14:23:09;61.40;;;30.70;;
33190;SDS011;19554;42.652;23.364;2023-11-21T14:25:36;49.90;;;29.02;;